sensor_id;sensor_type;location;lat;lon;timestamp;P1;durP1;ratioP1;P2;durP2;ratioP2
75377;SDS011;63959;51.960;5.886;2023-07-13T00:00:19;6.38;;;1.70;;
75377;SDS011;63959;51.960;5.886;2023-07-13T00:02:51;6.63;;;1.60;;
75377;SDS011;63959;51.960;5.886;2023-07-13T00:05:20;7.03;;;2.00;;
75377;SDS011;63959;51.960;5.886;2023-07-13T00:07:50;5.65;;;1.50;;
75377;SDS011;63959;51.960;5.886;2023-07-13T00:10:22;7.35;;;1.75;;
75377;SDS011;63959;51.960;5.886;2023-07-13T00:12:51;6.05;;;1.60;;
75377;SDS011;63959;51.960;5.886;2023-07-13T00:15:22;6.60;;;1.40;;
75377;SDS011;63959;51.960;5.886;2023-07-13T00:17:51;5.53;;;1.70;;
75377;SDS011;63959;51.960;5.886;2023-07-13T00:20:22;8.00;;;1.85;;
75377;SDS011;63959;51.960;5.886;2023-07-13T00:22:51;5.47;;;1.67;;
75377;SDS011;63959;51.960;5.886;2023-07-13T00:25:23;4.60;;;1.77;;
75377;SDS011;63959;51.960;5.886;2023-07-13T00:27:54;5.55;;;1.77;;
75377;SDS011;63959;51.960;5.886;2023-07-13T00:30:23;7.05;;;1.75;;
75377;SDS011;63959;51.960;5.886;2023-07-13T00:32:52;6.32;;;1.30;;
75377;SDS011;63959;51.960;5.886;2023-07-13T00:35:21;5.35;;;1.40;;
75377;SDS011;63959;51.960;5.886;2023-07-13T00:37:50;4.65;;;1.73;;
75377;SDS011;63959;51.960;5.886;2023-07-13T00:40:19;6.57;;;1.63;;
75377;SDS011;63959;51.960;5.886;2023-07-13T00:42:51;4.53;;;1.60;;
75377;SDS011;63959;51.960;5.886;2023-07-13T00:48:04;4.43;;;1.23;;
75377;SDS011;63959;51.960;5.886;2023-07-13T00:50:33;5.55;;;1.25;;
75377;SDS011;63959;51.960;5.886;2023-07-13T00:53:02;4.53;;;1.25;;
75377;SDS011;63959;51.960;5.886;2023-07-13T00:55:31;4.72;;;1.83;;
75377;SDS011;63959;51.960;5.886;2023-07-13T00:58:03;5.53;;;1.30;;
75377;SDS011;63959;51.960;5.886;2023-07-13T01:00:33;7.65;;;1.80;;
75377;SDS011;63959;51.960;5.886;2023-07-13T01:03:03;3.95;;;1.80;;
75377;SDS011;63959;51.960;5.886;2023-07-13T01:05:33;4.97;;;1.50;;
75377;SDS011;63959;51.960;5.886;2023-07-13T01:08:02;6.10;;;1.60;;
75377;SDS011;63959;51.960;5.886;2023-07-13T01:10:33;6.00;;;1.55;;
75377;SDS011;63959;51.960;5.886;2023-07-13T01:13:07;7.07;;;1.48;;
75377;SDS011;63959;51.960;5.886;2023-07-13T01:15:39;4.75;;;1.38;;
75377;SDS011;63959;51.960;5.886;2023-07-13T01:18:11;4.32;;;1.48;;
75377;SDS011;63959;51.960;5.886;2023-07-13T01:20:40;6.03;;;1.55;;
75377;SDS011;63959;51.960;5.886;2023-07-13T01:23:13;6.07;;;1.63;;
75377;SDS011;63959;51.960;5.886;2023-07-13T01:25:42;3.95;;;1.40;;
75377;SDS011;63959;51.960;5.886;2023-07-13T01:28:10;5.07;;;1.58;;
75377;SDS011;63959;51.960;5.886;2023-07-13T01:30:40;5.65;;;1.60;;
75377;SDS011;63959;51.960;5.886;2023-07-13T01:33:11;6.75;;;1.75;;
75377;SDS011;63959;51.960;5.886;2023-07-13T01:35:40;5.88;;;2.00;;
75377;SDS011;63959;51.960;5.886;2023-07-13T01:38:14;5.18;;;1.33;;
75377;SDS011;63959;51.960;5.886;2023-07-13T01:40:43;6.10;;;1.40;;
75377;SDS011;63959;51.960;5.886;2023-07-13T01:43:12;6.47;;;1.60;;
75377;SDS011;63959;51.960;5.886;2023-07-13T01:45:41;8.40;;;1.73;;
75377;SDS011;63959;51.960;5.886;2023-07-13T01:48:12;8.35;;;2.13;;
75377;SDS011;63959;51.960;5.886;2023-07-13T01:50:41;5.82;;;1.73;;
75377;SDS011;63959;51.960;5.886;2023-07-13T01:53:14;5.32;;;1.50;;
75377;SDS011;63959;51.960;5.886;2023-07-13T01:55:44;9.50;;;2.83;;
75377;SDS011;63959;51.960;5.886;2023-07-13T01:58:14;6.35;;;1.70;;
75377;SDS011;63959;51.960;5.886;2023-07-13T02:00:48;4.40;;;1.60;;
75377;SDS011;63959;51.960;5.886;2023-07-13T02:03:18;5.88;;;1.95;;
75377;SDS011;63959;51.960;5.886;2023-07-13T02:05:47;4.68;;;1.42;;
75377;SDS011;63959;51.960;5.886;2023-07-13T02:08:18;8.07;;;2.95;;
75377;SDS011;63959;51.960;5.886;2023-07-13T02:10:47;6.07;;;1.77;;
75377;SDS011;63959;51.960;5.886;2023-07-13T02:13:16;6.75;;;2.03;;
75377;SDS011;63959;51.960;5.886;2023-07-13T02:15:45;8.57;;;2.10;;
75377;SDS011;63959;51.960;5.886;2023-07-13T02:18:14;8.55;;;2.42;;
75377;SDS011;63959;51.960;5.886;2023-07-13T02:20:43;7.18;;;2.15;;
75377;SDS011;63959;51.960;5.886;2023-07-13T02:23:12;5.60;;;2.20;;
75377;SDS011;63959;51.960;5.886;2023-07-13T02:25:44;6.55;;;2.00;;
75377;SDS011;63959;51.960;5.886;2023-07-13T02:28:13;5.63;;;2.00;;
75377;SDS011;63959;51.960;5.886;2023-07-13T02:30:43;6.72;;;2.55;;
75377;SDS011;63959;51.960;5.886;2023-07-13T02:33:14;6.35;;;2.10;;
75377;SDS011;63959;51.960;5.886;2023-07-13T02:35:43;7.22;;;2.35;;
75377;SDS011;63959;51.960;5.886;2023-07-13T02:38:12;7.70;;;2.17;;
75377;SDS011;63959;51.960;5.886;2023-07-13T02:40:44;5.47;;;1.77;;
75377;SDS011;63959;51.960;5.886;2023-07-13T02:43:14;6.60;;;2.35;;
75377;SDS011;63959;51.960;5.886;2023-07-13T02:45:43;6.85;;;2.67;;
75377;SDS011;63959;51.960;5.886;2023-07-13T02:48:13;7.15;;;2.53;;
75377;SDS011;63959;51.960;5.886;2023-07-13T02:50:42;7.70;;;2.30;;
75377;SDS011;63959;51.960;5.886;2023-07-13T02:53:12;9.05;;;2.88;;
75377;SDS011;63959;51.960;5.886;2023-07-13T02:55:43;8.30;;;2.20;;
75377;SDS011;63959;51.960;5.886;2023-07-13T02:58:13;4.88;;;2.00;;
75377;SDS011;63959;51.960;5.886;2023-07-13T03:00:43;6.53;;;2.17;;
75377;SDS011;63959;51.960;5.886;2023-07-13T03:03:12;7.03;;;2.35;;
75377;SDS011;63959;51.960;5.886;2023-07-13T03:05:42;7.65;;;2.25;;
75377;SDS011;63959;51.960;5.886;2023-07-13T03:08:17;7.20;;;2.20;;
75377;SDS011;63959;51.960;5.886;2023-07-13T03:10:50;5.32;;;2.00;;
75377;SDS011;63959;51.960;5.886;2023-07-13T03:15:56;8.75;;;2.67;;
75377;SDS011;63959;51.960;5.886;2023-07-13T03:18:26;5.55;;;2.15;;
75377;SDS011;63959;51.960;5.886;2023-07-13T03:20:57;10.43;;;3.05;;
75377;SDS011;63959;51.960;5.886;2023-07-13T03:23:26;7.30;;;2.35;;
75377;SDS011;63959;51.960;5.886;2023-07-13T03:26:04;7.85;;;2.30;;
75377;SDS011;63959;51.960;5.886;2023-07-13T03:28:33;6.30;;;2.10;;
75377;SDS011;63959;51.960;5.886;2023-07-13T03:31:03;10.02;;;3.28;;
75377;SDS011;63959;51.960;5.886;2023-07-13T03:33:33;9.82;;;3.38;;
75377;SDS011;63959;51.960;5.886;2023-07-13T03:36:02;7.28;;;2.35;;
75377;SDS011;63959;51.960;5.886;2023-07-13T03:38:32;8.18;;;2.42;;
75377;SDS011;63959;51.960;5.886;2023-07-13T03:41:05;4.78;;;1.90;;
75377;SDS011;63959;51.960;5.886;2023-07-13T03:43:34;7.95;;;2.40;;
75377;SDS011;63959;51.960;5.886;2023-07-13T03:46:03;6.88;;;2.70;;
75377;SDS011;63959;51.960;5.886;2023-07-13T03:48:32;10.35;;;2.90;;
75377;SDS011;63959;51.960;5.886;2023-07-13T03:51:01;7.80;;;2.40;;
75377;SDS011;63959;51.960;5.886;2023-07-13T03:53:30;5.90;;;2.47;;
75377;SDS011;63959;51.960;5.886;2023-07-13T03:55:59;5.95;;;2.42;;
75377;SDS011;63959;51.960;5.886;2023-07-13T03:58:32;8.52;;;2.67;;
75377;SDS011;63959;51.960;5.886;2023-07-13T04:01:09;10.18;;;3.05;;
75377;SDS011;63959;51.960;5.886;2023-07-13T04:03:38;7.88;;;2.20;;
75377;SDS011;63959;51.960;5.886;2023-07-13T04:06:08;5.88;;;2.30;;
75377;SDS011;63959;51.960;5.886;2023-07-13T04:08:41;6.45;;;2.20;;
75377;SDS011;63959;51.960;5.886;2023-07-13T04:11:09;7.50;;;2.90;;
75377;SDS011;63959;51.960;5.886;2023-07-13T04:13:41;13.02;;;3.95;;
75377;SDS011;63959;51.960;5.886;2023-07-13T04:16:10;9.32;;;2.92;;
75377;SDS011;63959;51.960;5.886;2023-07-13T04:18:39;12.43;;;3.72;;
75377;SDS011;63959;51.960;5.886;2023-07-13T04:21:08;12.18;;;3.83;;
75377;SDS011;63959;51.960;5.886;2023-07-13T04:23:37;8.70;;;2.58;;
75377;SDS011;63959;51.960;5.886;2023-07-13T04:26:07;6.60;;;2.42;;
75377;SDS011;63959;51.960;5.886;2023-07-13T04:28:36;9.60;;;3.15;;
75377;SDS011;63959;51.960;5.886;2023-07-13T04:31:07;9.10;;;3.85;;
75377;SDS011;63959;51.960;5.886;2023-07-13T04:33:36;11.48;;;3.10;;
75377;SDS011;63959;51.960;5.886;2023-07-13T04:36:05;8.80;;;2.92;;
75377;SDS011;63959;51.960;5.886;2023-07-13T04:38:35;12.45;;;3.35;;
75377;SDS011;63959;51.960;5.886;2023-07-13T04:41:05;6.80;;;2.75;;
75377;SDS011;63959;51.960;5.886;2023-07-13T04:43:34;9.27;;;3.08;;
75377;SDS011;63959;51.960;5.886;2023-07-13T04:46:04;7.57;;;2.88;;
75377;SDS011;63959;51.960;5.886;2023-07-13T04:48:35;10.18;;;3.08;;
75377;SDS011;63959;51.960;5.886;2023-07-13T04:51:04;8.73;;;2.80;;
75377;SDS011;63959;51.960;5.886;2023-07-13T04:53:33;8.35;;;2.90;;
75377;SDS011;63959;51.960;5.886;2023-07-13T04:56:02;8.05;;;3.00;;
75377;SDS011;63959;51.960;5.886;2023-07-13T04:58:31;9.32;;;2.70;;
75377;SDS011;63959;51.960;5.886;2023-07-13T05:01:00;8.75;;;2.72;;
75377;SDS011;63959;51.960;5.886;2023-07-13T05:03:29;9.43;;;3.58;;
75377;SDS011;63959;51.960;5.886;2023-07-13T05:06:03;10.70;;;3.88;;
75377;SDS011;63959;51.960;5.886;2023-07-13T05:08:32;9.38;;;3.30;;
75377;SDS011;63959;51.960;5.886;2023-07-13T05:11:01;8.73;;;3.45;;
75377;SDS011;63959;51.960;5.886;2023-07-13T05:13:30;10.98;;;3.58;;
75377;SDS011;63959;51.960;5.886;2023-07-13T05:16:00;9.48;;;3.50;;
75377;SDS011;63959;51.960;5.886;2023-07-13T05:18:29;8.70;;;2.95;;
75377;SDS011;63959;51.960;5.886;2023-07-13T05:21:02;9.10;;;3.50;;
75377;SDS011;63959;51.960;5.886;2023-07-13T05:23:31;10.20;;;3.90;;
75377;SDS011;63959;51.960;5.886;2023-07-13T05:26:01;11.02;;;3.80;;
75377;SDS011;63959;51.960;5.886;2023-07-13T05:28:30;8.88;;;3.60;;
75377;SDS011;63959;51.960;5.886;2023-07-13T05:30:59;16.20;;;5.00;;
75377;SDS011;63959;51.960;5.886;2023-07-13T05:33:28;11.90;;;5.13;;
75377;SDS011;63959;51.960;5.886;2023-07-13T05:35:57;12.40;;;4.45;;
75377;SDS011;63959;51.960;5.886;2023-07-13T05:38:28;13.18;;;4.20;;
75377;SDS011;63959;51.960;5.886;2023-07-13T05:40:57;11.38;;;4.68;;
75377;SDS011;63959;51.960;5.886;2023-07-13T05:43:26;12.73;;;4.85;;
75377;SDS011;63959;51.960;5.886;2023-07-13T05:45:56;13.70;;;4.30;;
75377;SDS011;63959;51.960;5.886;2023-07-13T05:48:25;16.30;;;4.30;;
75377;SDS011;63959;51.960;5.886;2023-07-13T05:50:53;11.68;;;5.00;;
75377;SDS011;63959;51.960;5.886;2023-07-13T05:53:22;14.80;;;5.13;;
75377;SDS011;63959;51.960;5.886;2023-07-13T05:55:54;17.02;;;5.75;;
75377;SDS011;63959;51.960;5.886;2023-07-13T05:58:23;12.55;;;4.88;;
75377;SDS011;63959;51.960;5.886;2023-07-13T06:00:58;13.15;;;4.07;;
75377;SDS011;63959;51.960;5.886;2023-07-13T06:03:27;13.63;;;4.85;;
75377;SDS011;63959;51.960;5.886;2023-07-13T06:05:59;13.18;;;6.38;;
75377;SDS011;63959;51.960;5.886;2023-07-13T06:08:28;11.93;;;5.00;;
75377;SDS011;63959;51.960;5.886;2023-07-13T06:11:04;15.23;;;5.35;;
75377;SDS011;63959;51.960;5.886;2023-07-13T06:13:33;11.65;;;4.55;;
75377;SDS011;63959;51.960;5.886;2023-07-13T06:16:02;16.90;;;6.65;;
75377;SDS011;63959;51.960;5.886;2023-07-13T06:18:33;16.85;;;6.50;;
75377;SDS011;63959;51.960;5.886;2023-07-13T06:21:05;20.77;;;7.57;;
75377;SDS011;63959;51.960;5.886;2023-07-13T06:23:34;17.48;;;7.57;;
75377;SDS011;63959;51.960;5.886;2023-07-13T06:26:05;15.50;;;7.57;;
75377;SDS011;63959;51.960;5.886;2023-07-13T06:28:34;18.33;;;7.70;;
75377;SDS011;63959;51.960;5.886;2023-07-13T06:31:05;15.73;;;7.38;;
75377;SDS011;63959;51.960;5.886;2023-07-13T06:33:36;13.55;;;6.13;;
75377;SDS011;63959;51.960;5.886;2023-07-13T06:36:05;18.65;;;7.18;;
75377;SDS011;63959;51.960;5.886;2023-07-13T06:38:35;17.52;;;7.93;;
75377;SDS011;63959;51.960;5.886;2023-07-13T06:41:07;13.20;;;7.22;;
75377;SDS011;63959;51.960;5.886;2023-07-13T06:43:36;21.92;;;10.32;;
75377;SDS011;63959;51.960;5.886;2023-07-13T06:46:10;17.38;;;8.13;;
75377;SDS011;63959;51.960;5.886;2023-07-13T06:48:39;14.50;;;6.93;;
75377;SDS011;63959;51.960;5.886;2023-07-13T06:51:08;15.55;;;7.35;;
75377;SDS011;63959;51.960;5.886;2023-07-13T06:53:37;18.80;;;8.38;;
75377;SDS011;63959;51.960;5.886;2023-07-13T06:56:08;19.15;;;8.45;;
75377;SDS011;63959;51.960;5.886;2023-07-13T06:58:37;15.98;;;8.15;;
75377;SDS011;63959;51.960;5.886;2023-07-13T07:01:06;16.83;;;8.82;;
75377;SDS011;63959;51.960;5.886;2023-07-13T07:03:34;19.23;;;8.07;;
75377;SDS011;63959;51.960;5.886;2023-07-13T07:06:12;15.63;;;8.75;;
75377;SDS011;63959;51.960;5.886;2023-07-13T07:08:43;16.73;;;7.88;;
75377;SDS011;63959;51.960;5.886;2023-07-13T07:11:16;25.60;;;8.45;;
75377;SDS011;63959;51.960;5.886;2023-07-13T07:13:45;16.65;;;8.13;;
75377;SDS011;63959;51.960;5.886;2023-07-13T07:16:14;17.23;;;8.30;;
75377;SDS011;63959;51.960;5.886;2023-07-13T07:18:43;16.25;;;9.30;;
75377;SDS011;63959;51.960;5.886;2023-07-13T07:21:12;17.20;;;8.60;;
75377;SDS011;63959;51.960;5.886;2023-07-13T07:23:40;17.95;;;8.95;;
75377;SDS011;63959;51.960;5.886;2023-07-13T07:26:09;17.23;;;8.98;;
75377;SDS011;63959;51.960;5.886;2023-07-13T07:28:41;18.50;;;9.55;;
75377;SDS011;63959;51.960;5.886;2023-07-13T07:31:09;19.92;;;9.40;;
75377;SDS011;63959;51.960;5.886;2023-07-13T07:33:38;18.10;;;8.77;;
75377;SDS011;63959;51.960;5.886;2023-07-13T07:36:07;15.88;;;8.85;;
75377;SDS011;63959;51.960;5.886;2023-07-13T07:38:37;21.90;;;9.77;;
75377;SDS011;63959;51.960;5.886;2023-07-13T07:41:06;16.67;;;8.32;;
75377;SDS011;63959;51.960;5.886;2023-07-13T07:43:35;20.60;;;10.63;;
75377;SDS011;63959;51.960;5.886;2023-07-13T07:46:06;18.35;;;9.75;;
75377;SDS011;63959;51.960;5.886;2023-07-13T07:48:35;12.23;;;7.20;;
75377;SDS011;63959;51.960;5.886;2023-07-13T07:51:04;16.63;;;9.23;;
75377;SDS011;63959;51.960;5.886;2023-07-13T07:53:32;19.88;;;10.35;;
75377;SDS011;63959;51.960;5.886;2023-07-13T07:56:01;17.23;;;9.82;;
75377;SDS011;63959;51.960;5.886;2023-07-13T07:58:30;19.60;;;11.13;;
75377;SDS011;63959;51.960;5.886;2023-07-13T08:01:02;18.23;;;8.55;;
75377;SDS011;63959;51.960;5.886;2023-07-13T08:03:34;18.25;;;9.52;;
75377;SDS011;63959;51.960;5.886;2023-07-13T08:06:03;15.70;;;8.55;;
75377;SDS011;63959;51.960;5.886;2023-07-13T08:08:31;18.38;;;9.80;;
75377;SDS011;63959;51.960;5.886;2023-07-13T08:11:02;18.25;;;8.85;;
75377;SDS011;63959;51.960;5.886;2023-07-13T08:13:30;16.67;;;8.80;;
75377;SDS011;63959;51.960;5.886;2023-07-13T08:15:59;17.52;;;8.55;;
75377;SDS011;63959;51.960;5.886;2023-07-13T08:18:28;15.32;;;8.75;;
75377;SDS011;63959;51.960;5.886;2023-07-13T08:20:59;19.13;;;9.65;;
75377;SDS011;63959;51.960;5.886;2023-07-13T08:23:31;12.82;;;7.05;;
75377;SDS011;63959;51.960;5.886;2023-07-13T08:26:00;13.52;;;7.75;;
75377;SDS011;63959;51.960;5.886;2023-07-13T08:28:30;16.23;;;8.73;;
75377;SDS011;63959;51.960;5.886;2023-07-13T08:31:00;17.08;;;8.70;;
75377;SDS011;63959;51.960;5.886;2023-07-13T08:33:29;18.73;;;9.68;;
75377;SDS011;63959;51.960;5.886;2023-07-13T08:36:00;16.75;;;7.97;;
75377;SDS011;63959;51.960;5.886;2023-07-13T08:38:29;15.90;;;8.10;;
75377;SDS011;63959;51.960;5.886;2023-07-13T08:40:57;16.90;;;9.63;;
75377;SDS011;63959;51.960;5.886;2023-07-13T08:43:27;14.93;;;8.70;;
75377;SDS011;63959;51.960;5.886;2023-07-13T08:45:57;14.45;;;7.68;;
75377;SDS011;63959;51.960;5.886;2023-07-13T08:48:28;14.30;;;6.72;;
75377;SDS011;63959;51.960;5.886;2023-07-13T08:51:02;14.38;;;7.05;;
75377;SDS011;63959;51.960;5.886;2023-07-13T08:53:34;13.68;;;6.65;;
75377;SDS011;63959;51.960;5.886;2023-07-13T08:56:03;16.92;;;8.80;;
75377;SDS011;63959;51.960;5.886;2023-07-13T08:58:33;13.15;;;6.95;;
75377;SDS011;63959;51.960;5.886;2023-07-13T09:01:05;14.32;;;7.43;;
75377;SDS011;63959;51.960;5.886;2023-07-13T09:03:40;13.45;;;7.60;;
75377;SDS011;63959;51.960;5.886;2023-07-13T09:06:12;13.07;;;7.07;;
75377;SDS011;63959;51.960;5.886;2023-07-13T09:08:46;10.75;;;5.72;;
75377;SDS011;63959;51.960;5.886;2023-07-13T09:11:21;11.15;;;5.82;;
75377;SDS011;63959;51.960;5.886;2023-07-13T09:13:54;12.68;;;7.32;;
75377;SDS011;63959;51.960;5.886;2023-07-13T09:16:29;11.27;;;6.97;;
75377;SDS011;63959;51.960;5.886;2023-07-13T09:18:59;11.65;;;6.22;;
75377;SDS011;63959;51.960;5.886;2023-07-13T09:21:33;14.63;;;6.78;;
75377;SDS011;63959;51.960;5.886;2023-07-13T09:24:14;13.10;;;5.28;;
75377;SDS011;63959;51.960;5.886;2023-07-13T09:26:49;11.65;;;6.05;;
75377;SDS011;63959;51.960;5.886;2023-07-13T09:29:19;8.15;;;4.80;;
75377;SDS011;63959;51.960;5.886;2023-07-13T09:31:52;10.10;;;4.95;;
75377;SDS011;63959;51.960;5.886;2023-07-13T09:34:22;12.82;;;6.13;;
75377;SDS011;63959;51.960;5.886;2023-07-13T09:36:53;10.80;;;5.63;;
75377;SDS011;63959;51.960;5.886;2023-07-13T09:39:25;14.25;;;5.38;;
75377;SDS011;63959;51.960;5.886;2023-07-13T09:41:55;11.40;;;5.15;;
75377;SDS011;63959;51.960;5.886;2023-07-13T09:44:27;11.02;;;4.28;;
75377;SDS011;63959;51.960;5.886;2023-07-13T09:46:56;6.63;;;4.10;;
75377;SDS011;63959;51.960;5.886;2023-07-13T09:49:26;10.32;;;4.32;;
75377;SDS011;63959;51.960;5.886;2023-07-13T09:52:02;12.70;;;5.07;;
75377;SDS011;63959;51.960;5.886;2023-07-13T09:54:32;7.75;;;3.83;;
75377;SDS011;63959;51.960;5.886;2023-07-13T09:57:02;10.90;;;4.80;;
75377;SDS011;63959;51.960;5.886;2023-07-13T09:59:32;11.07;;;4.93;;
75377;SDS011;63959;51.960;5.886;2023-07-13T10:02:02;8.60;;;4.47;;
75377;SDS011;63959;51.960;5.886;2023-07-13T10:04:32;12.45;;;5.72;;
75377;SDS011;63959;51.960;5.886;2023-07-13T10:07:07;10.55;;;4.95;;
75377;SDS011;63959;51.960;5.886;2023-07-13T10:09:36;9.07;;;4.85;;
75377;SDS011;63959;51.960;5.886;2023-07-13T10:12:12;8.50;;;4.95;;
75377;SDS011;63959;51.960;5.886;2023-07-13T10:14:41;7.93;;;4.93;;
75377;SDS011;63959;51.960;5.886;2023-07-13T10:17:12;10.20;;;5.10;;
75377;SDS011;63959;51.960;5.886;2023-07-13T10:19:41;9.77;;;5.30;;
75377;SDS011;63959;51.960;5.886;2023-07-13T10:22:16;11.43;;;6.18;;
75377;SDS011;63959;51.960;5.886;2023-07-13T10:24:46;11.23;;;4.90;;
75377;SDS011;63959;51.960;5.886;2023-07-13T10:27:17;8.50;;;4.70;;
75377;SDS011;63959;51.960;5.886;2023-07-13T10:29:46;11.88;;;5.05;;
75377;SDS011;63959;51.960;5.886;2023-07-13T10:32:16;11.57;;;4.78;;
75377;SDS011;63959;51.960;5.886;2023-07-13T10:34:47;9.90;;;5.10;;
75377;SDS011;63959;51.960;5.886;2023-07-13T10:37:22;11.18;;;4.57;;
75377;SDS011;63959;51.960;5.886;2023-07-13T10:39:52;9.80;;;4.25;;
75377;SDS011;63959;51.960;5.886;2023-07-13T10:42:24;11.18;;;4.28;;
75377;SDS011;63959;51.960;5.886;2023-07-13T10:44:53;9.52;;;4.07;;
75377;SDS011;63959;51.960;5.886;2023-07-13T10:47:22;10.55;;;5.85;;
75377;SDS011;63959;51.960;5.886;2023-07-13T10:49:53;16.50;;;7.72;;
75377;SDS011;63959;51.960;5.886;2023-07-13T10:55:12;10.65;;;6.00;;
75377;SDS011;63959;51.960;5.886;2023-07-13T10:57:59;8.38;;;4.53;;
75377;SDS011;63959;51.960;5.886;2023-07-13T11:00:30;10.70;;;4.82;;
75377;SDS011;63959;51.960;5.886;2023-07-13T11:03:00;9.15;;;4.70;;
75377;SDS011;63959;51.960;5.886;2023-07-13T11:05:30;9.63;;;6.32;;
75377;SDS011;63959;51.960;5.886;2023-07-13T11:08:03;9.13;;;4.28;;
75377;SDS011;63959;51.960;5.886;2023-07-13T11:10:51;12.68;;;7.00;;
75377;SDS011;63959;51.960;5.886;2023-07-13T11:13:36;14.40;;;8.25;;
75377;SDS011;63959;51.960;5.886;2023-07-13T11:16:12;10.18;;;5.32;;
75377;SDS011;63959;51.960;5.886;2023-07-13T11:18:51;7.80;;;4.82;;
75377;SDS011;63959;51.960;5.886;2023-07-13T11:21:21;8.82;;;4.85;;
75377;SDS011;63959;51.960;5.886;2023-07-13T11:23:52;11.57;;;5.78;;
75377;SDS011;63959;51.960;5.886;2023-07-13T11:29:12;15.55;;;6.13;;
75377;SDS011;63959;51.960;5.886;2023-07-13T11:31:53;11.40;;;5.45;;
75377;SDS011;63959;51.960;5.886;2023-07-13T11:34:24;10.38;;;4.88;;
75377;SDS011;63959;51.960;5.886;2023-07-13T11:36:56;6.63;;;3.70;;
75377;SDS011;63959;51.960;5.886;2023-07-13T11:39:27;9.27;;;4.97;;
75377;SDS011;63959;51.960;5.886;2023-07-13T11:41:58;9.18;;;3.85;;
75377;SDS011;63959;51.960;5.886;2023-07-13T11:44:31;5.70;;;2.83;;
75377;SDS011;63959;51.960;5.886;2023-07-13T11:47:08;6.78;;;3.40;;
75377;SDS011;63959;51.960;5.886;2023-07-13T11:49:40;8.10;;;2.65;;
75377;SDS011;63959;51.960;5.886;2023-07-13T11:52:10;7.82;;;2.90;;
75377;SDS011;63959;51.960;5.886;2023-07-13T12:00:46;7.30;;;2.80;;
75377;SDS011;63959;51.960;5.886;2023-07-13T12:03:22;5.10;;;1.92;;
75377;SDS011;63959;51.960;5.886;2023-07-13T12:05:59;6.68;;;2.90;;
75377;SDS011;63959;51.960;5.886;2023-07-13T12:08:31;6.65;;;2.85;;
75377;SDS011;63959;51.960;5.886;2023-07-13T12:11:14;7.80;;;2.83;;
75377;SDS011;63959;51.960;5.886;2023-07-13T12:13:46;5.18;;;2.08;;
75377;SDS011;63959;51.960;5.886;2023-07-13T12:16:28;5.70;;;2.20;;
75377;SDS011;63959;51.960;5.886;2023-07-13T12:19:09;5.68;;;2.58;;
75377;SDS011;63959;51.960;5.886;2023-07-13T12:24:32;5.80;;;2.58;;
75377;SDS011;63959;51.960;5.886;2023-07-13T12:27:04;9.57;;;3.35;;
75377;SDS011;63959;51.960;5.886;2023-07-13T12:29:36;9.98;;;3.65;;
75377;SDS011;63959;51.960;5.886;2023-07-13T12:32:26;6.50;;;2.85;;
75377;SDS011;63959;51.960;5.886;2023-07-13T12:35:12;7.40;;;3.45;;
75377;SDS011;63959;51.960;5.886;2023-07-13T12:37:50;9.05;;;3.53;;
75377;SDS011;63959;51.960;5.886;2023-07-13T12:40:34;7.35;;;3.05;;
75377;SDS011;63959;51.960;5.886;2023-07-13T12:43:03;6.10;;;2.35;;
75377;SDS011;63959;51.960;5.886;2023-07-13T12:45:32;8.00;;;3.20;;
75377;SDS011;63959;51.960;5.886;2023-07-13T12:48:06;6.90;;;2.83;;
75377;SDS011;63959;51.960;5.886;2023-07-13T12:50:45;6.38;;;2.50;;
75377;SDS011;63959;51.960;5.886;2023-07-13T12:56:50;6.00;;;2.42;;
75377;SDS011;63959;51.960;5.886;2023-07-13T12:59:23;7.80;;;2.60;;
75377;SDS011;63959;51.960;5.886;2023-07-13T13:01:51;5.45;;;2.22;;
75377;SDS011;63959;51.960;5.886;2023-07-13T13:04:30;5.95;;;2.17;;
75377;SDS011;63959;51.960;5.886;2023-07-13T13:07:03;5.80;;;2.35;;
75377;SDS011;63959;51.960;5.886;2023-07-13T13:09:35;6.97;;;2.42;;
75377;SDS011;63959;51.960;5.886;2023-07-13T13:12:04;4.40;;;2.20;;
75377;SDS011;63959;51.960;5.886;2023-07-13T13:16:07;7.07;;;2.13;;
75377;SDS011;63959;51.960;5.886;2023-07-13T13:17:55;7.97;;;2.40;;
75377;SDS011;63959;51.960;5.886;2023-07-13T13:20:30;7.10;;;2.17;;
75377;SDS011;63959;51.960;5.886;2023-07-13T13:26:22;7.45;;;1.90;;
75377;SDS011;63959;51.960;5.886;2023-07-13T13:32:29;5.93;;;2.20;;
75377;SDS011;63959;51.960;5.886;2023-07-13T13:38:04;5.10;;;1.80;;
75377;SDS011;63959;51.960;5.886;2023-07-13T13:40:37;6.63;;;2.40;;
75377;SDS011;63959;51.960;5.886;2023-07-13T13:43:11;5.03;;;1.90;;
75377;SDS011;63959;51.960;5.886;2023-07-13T13:45:42;3.30;;;1.48;;
75377;SDS011;63959;51.960;5.886;2023-07-13T13:48:13;5.13;;;2.03;;
75377;SDS011;63959;51.960;5.886;2023-07-13T13:50:43;4.68;;;1.63;;
75377;SDS011;63959;51.960;5.886;2023-07-13T13:53:14;5.53;;;1.85;;
75377;SDS011;63959;51.960;5.886;2023-07-13T13:55:43;4.70;;;1.80;;
75377;SDS011;63959;51.960;5.886;2023-07-13T13:58:12;5.05;;;1.80;;
75377;SDS011;63959;51.960;5.886;2023-07-13T14:00:41;4.20;;;1.80;;
75377;SDS011;63959;51.960;5.886;2023-07-13T14:03:13;5.05;;;1.85;;
75377;SDS011;63959;51.960;5.886;2023-07-13T14:05:42;4.53;;;1.80;;
75377;SDS011;63959;51.960;5.886;2023-07-13T14:08:15;5.53;;;2.10;;
75377;SDS011;63959;51.960;5.886;2023-07-13T14:10:48;6.15;;;2.15;;
75377;SDS011;63959;51.960;5.886;2023-07-13T14:13:19;4.70;;;1.95;;
75377;SDS011;63959;51.960;5.886;2023-07-13T14:15:48;5.57;;;2.00;;
75377;SDS011;63959;51.960;5.886;2023-07-13T14:18:17;6.45;;;1.65;;
75377;SDS011;63959;51.960;5.886;2023-07-13T14:20:46;5.53;;;1.65;;
75377;SDS011;63959;51.960;5.886;2023-07-13T14:23:20;3.97;;;1.70;;
75377;SDS011;63959;51.960;5.886;2023-07-13T14:25:49;4.18;;;1.63;;
75377;SDS011;63959;51.960;5.886;2023-07-13T14:28:20;4.65;;;1.90;;
75377;SDS011;63959;51.960;5.886;2023-07-13T14:30:49;4.78;;;1.83;;
75377;SDS011;63959;51.960;5.886;2023-07-13T14:33:18;4.70;;;1.92;;
75377;SDS011;63959;51.960;5.886;2023-07-13T14:35:47;3.58;;;1.70;;
75377;SDS011;63959;51.960;5.886;2023-07-13T14:38:17;5.53;;;1.95;;
75377;SDS011;63959;51.960;5.886;2023-07-13T14:40:49;3.88;;;1.60;;
75377;SDS011;63959;51.960;5.886;2023-07-13T14:43:18;4.35;;;1.70;;
75377;SDS011;63959;51.960;5.886;2023-07-13T14:45:47;5.18;;;1.88;;
75377;SDS011;63959;51.960;5.886;2023-07-13T14:48:18;4.40;;;1.98;;
75377;SDS011;63959;51.960;5.886;2023-07-13T14:50:50;5.35;;;1.67;;
75377;SDS011;63959;51.960;5.886;2023-07-13T14:53:21;4.32;;;1.52;;
75377;SDS011;63959;51.960;5.886;2023-07-13T14:55:53;5.22;;;1.70;;
75377;SDS011;63959;51.960;5.886;2023-07-13T14:58:22;5.35;;;1.85;;
75377;SDS011;63959;51.960;5.886;2023-07-13T15:00:51;6.60;;;1.90;;
75377;SDS011;63959;51.960;5.886;2023-07-13T15:03:23;4.28;;;1.95;;
75377;SDS011;63959;51.960;5.886;2023-07-13T15:05:53;5.30;;;1.98;;
75377;SDS011;63959;51.960;5.886;2023-07-13T15:08:22;6.18;;;1.83;;
75377;SDS011;63959;51.960;5.886;2023-07-13T15:10:53;5.35;;;1.77;;
75377;SDS011;63959;51.960;5.886;2023-07-13T15:13:25;5.75;;;1.70;;
75377;SDS011;63959;51.960;5.886;2023-07-13T15:15:54;4.95;;;2.30;;
75377;SDS011;63959;51.960;5.886;2023-07-13T15:18:24;4.57;;;1.88;;
75377;SDS011;63959;51.960;5.886;2023-07-13T15:20:53;4.15;;;1.83;;
75377;SDS011;63959;51.960;5.886;2023-07-13T15:23:26;3.83;;;1.45;;
75377;SDS011;63959;51.960;5.886;2023-07-13T15:25:57;5.90;;;2.28;;
75377;SDS011;63959;51.960;5.886;2023-07-13T15:28:26;4.28;;;1.65;;
75377;SDS011;63959;51.960;5.886;2023-07-13T15:30:55;5.88;;;1.90;;
75377;SDS011;63959;51.960;5.886;2023-07-13T15:33:24;5.30;;;1.80;;
75377;SDS011;63959;51.960;5.886;2023-07-13T15:35:54;6.15;;;1.83;;
75377;SDS011;63959;51.960;5.886;2023-07-13T15:38:24;5.10;;;2.13;;